sensor_id;sensor_type;location;lat;lon;timestamp;P1;durP1;ratioP1;P2;durP2;ratioP2
2173;SDS011;1093;51.424;11.764;2022-08-19T00:00:03;40.97;;;30.43;;
2173;SDS011;1093;51.424;11.764;2022-08-19T00:02:34;43.43;;;32.53;;
2173;SDS011;1093;51.424;11.764;2022-08-19T00:05:00;45.07;;;33.40;;
2173;SDS011;1093;51.424;11.764;2022-08-19T00:07:28;46.60;;;32.10;;
2173;SDS011;1093;51.424;11.764;2022-08-19T00:09:55;59.53;;;33.77;;
2173;SDS011;1093;51.424;11.764;2022-08-19T00:12:21;46.47;;;33.80;;
2173;SDS011;1093;51.424;11.764;2022-08-19T00:14:48;47.47;;;34.47;;
2173;SDS011;1093;51.424;11.764;2022-08-19T00:17:15;42.03;;;33.33;;
2173;SDS011;1093;51.424;11.764;2022-08-19T00:19:43;44.13;;;32.50;;
2173;SDS011;1093;51.424;11.764;2022-08-19T00:22:10;40.07;;;29.70;;
2173;SDS011;1093;51.424;11.764;2022-08-19T00:24:37;40.87;;;32.23;;
2173;SDS011;1093;51.424;11.764;2022-08-19T00:27:04;42.70;;;30.67;;
2173;SDS011;1093;51.424;11.764;2022-08-19T00:29:31;40.17;;;31.63;;
2173;SDS011;1093;51.424;11.764;2022-08-19T00:31:57;38.90;;;31.63;;
2173;SDS011;1093;51.424;11.764;2022-08-19T00:34:25;40.80;;;31.47;;
2173;SDS011;1093;51.424;11.764;2022-08-19T00:36:55;47.73;;;35.50;;
2173;SDS011;1093;51.424;11.764;2022-08-19T00:39:22;49.93;;;32.50;;
2173;SDS011;1093;51.424;11.764;2022-08-19T00:41:49;46.30;;;33.30;;
2173;SDS011;1093;51.424;11.764;2022-08-19T00:44:18;38.50;;;30.30;;
2173;SDS011;1093;51.424;11.764;2022-08-19T00:46:49;39.40;;;31.03;;
2173;SDS011;1093;51.424;11.764;2022-08-19T00:49:19;45.23;;;32.70;;
2173;SDS011;1093;51.424;11.764;2022-08-19T00:51:50;40.23;;;30.93;;
2173;SDS011;1093;51.424;11.764;2022-08-19T00:54:21;48.40;;;32.83;;
2173;SDS011;1093;51.424;11.764;2022-08-19T00:56:48;42.77;;;32.33;;
2173;SDS011;1093;51.424;11.764;2022-08-19T00:59:16;41.67;;;29.77;;
2173;SDS011;1093;51.424;11.764;2022-08-19T01:01:45;43.83;;;32.20;;
2173;SDS011;1093;51.424;11.764;2022-08-19T01:04:13;41.27;;;31.50;;
2173;SDS011;1093;51.424;11.764;2022-08-19T01:06:39;41.87;;;32.80;;
2173;SDS011;1093;51.424;11.764;2022-08-19T01:09:07;41.30;;;31.63;;
2173;SDS011;1093;51.424;11.764;2022-08-19T01:11:37;45.37;;;32.77;;
2173;SDS011;1093;51.424;11.764;2022-08-19T01:14:07;43.90;;;32.53;;
2173;SDS011;1093;51.424;11.764;2022-08-19T01:16:35;39.30;;;29.80;;
2173;SDS011;1093;51.424;11.764;2022-08-19T01:19:03;41.40;;;32.20;;
2173;SDS011;1093;51.424;11.764;2022-08-19T01:21:38;45.67;;;32.60;;
2173;SDS011;1093;51.424;11.764;2022-08-19T01:24:13;45.63;;;34.60;;
2173;SDS011;1093;51.424;11.764;2022-08-19T01:26:41;37.77;;;30.23;;
2173;SDS011;1093;51.424;11.764;2022-08-19T01:29:11;48.03;;;31.40;;
2173;SDS011;1093;51.424;11.764;2022-08-19T01:31:38;45.80;;;34.23;;
2173;SDS011;1093;51.424;11.764;2022-08-19T01:34:06;44.90;;;30.60;;
2173;SDS011;1093;51.424;11.764;2022-08-19T01:36:34;42.30;;;32.70;;
2173;SDS011;1093;51.424;11.764;2022-08-19T01:39:05;51.00;;;35.67;;
2173;SDS011;1093;51.424;11.764;2022-08-19T01:41:36;45.40;;;33.00;;
2173;SDS011;1093;51.424;11.764;2022-08-19T01:44:03;55.20;;;38.57;;
2173;SDS011;1093;51.424;11.764;2022-08-19T01:46:31;47.47;;;35.33;;
2173;SDS011;1093;51.424;11.764;2022-08-19T01:48:58;45.47;;;34.83;;
2173;SDS011;1093;51.424;11.764;2022-08-19T01:51:25;52.53;;;36.80;;
2173;SDS011;1093;51.424;11.764;2022-08-19T01:53:52;51.70;;;36.47;;
2173;SDS011;1093;51.424;11.764;2022-08-19T01:56:20;43.53;;;33.40;;
2173;SDS011;1093;51.424;11.764;2022-08-19T01:58:49;45.03;;;32.13;;
2173;SDS011;1093;51.424;11.764;2022-08-19T02:01:21;46.77;;;35.90;;
2173;SDS011;1093;51.424;11.764;2022-08-19T02:03:48;45.37;;;34.77;;
2173;SDS011;1093;51.424;11.764;2022-08-19T02:06:16;52.97;;;37.30;;
2173;SDS011;1093;51.424;11.764;2022-08-19T02:08:43;48.77;;;36.23;;
2173;SDS011;1093;51.424;11.764;2022-08-19T02:11:18;51.33;;;38.07;;
2173;SDS011;1093;51.424;11.764;2022-08-19T02:13:48;58.97;;;36.60;;
2173;SDS011;1093;51.424;11.764;2022-08-19T02:16:16;57.73;;;39.03;;
2173;SDS011;1093;51.424;11.764;2022-08-19T02:18:43;55.23;;;38.73;;
2173;SDS011;1093;51.424;11.764;2022-08-19T02:21:10;52.00;;;38.90;;
2173;SDS011;1093;51.424;11.764;2022-08-19T02:23:38;54.80;;;38.17;;
2173;SDS011;1093;51.424;11.764;2022-08-19T02:26:05;61.90;;;44.47;;
2173;SDS011;1093;51.424;11.764;2022-08-19T02:28:31;59.67;;;43.30;;
2173;SDS011;1093;51.424;11.764;2022-08-19T02:30:59;65.77;;;42.80;;
2173;SDS011;1093;51.424;11.764;2022-08-19T02:33:27;61.57;;;43.17;;
2173;SDS011;1093;51.424;11.764;2022-08-19T02:35:54;58.50;;;42.57;;
2173;SDS011;1093;51.424;11.764;2022-08-19T02:38:21;61.10;;;43.97;;
2173;SDS011;1093;51.424;11.764;2022-08-19T02:40:53;63.50;;;44.10;;
2173;SDS011;1093;51.424;11.764;2022-08-19T02:43:22;66.20;;;45.37;;
2173;SDS011;1093;51.424;11.764;2022-08-19T02:45:50;63.73;;;44.00;;
2173;SDS011;1093;51.424;11.764;2022-08-19T02:48:20;67.20;;;46.03;;
2173;SDS011;1093;51.424;11.764;2022-08-19T02:50:49;63.07;;;44.37;;
2173;SDS011;1093;51.424;11.764;2022-08-19T02:53:20;69.00;;;45.60;;
2173;SDS011;1093;51.424;11.764;2022-08-19T02:55:48;60.10;;;46.30;;
2173;SDS011;1093;51.424;11.764;2022-08-19T02:58:16;67.70;;;47.20;;
2173;SDS011;1093;51.424;11.764;2022-08-19T03:00:43;70.80;;;47.57;;
2173;SDS011;1093;51.424;11.764;2022-08-19T03:03:11;58.70;;;41.17;;
2173;SDS011;1093;51.424;11.764;2022-08-19T03:05:39;71.80;;;47.67;;
2173;SDS011;1093;51.424;11.764;2022-08-19T03:08:07;61.73;;;43.47;;
2173;SDS011;1093;51.424;11.764;2022-08-19T03:10:40;63.77;;;44.57;;
2173;SDS011;1093;51.424;11.764;2022-08-19T03:13:09;65.33;;;43.60;;
2173;SDS011;1093;51.424;11.764;2022-08-19T03:15:39;69.83;;;46.87;;
2173;SDS011;1093;51.424;11.764;2022-08-19T03:18:07;68.40;;;45.37;;
2173;SDS011;1093;51.424;11.764;2022-08-19T03:20:34;60.17;;;43.70;;
2173;SDS011;1093;51.424;11.764;2022-08-19T03:23:08;60.83;;;43.60;;
2173;SDS011;1093;51.424;11.764;2022-08-19T03:25:36;63.37;;;44.50;;
2173;SDS011;1093;51.424;11.764;2022-08-19T03:28:03;63.03;;;43.90;;
2173;SDS011;1093;51.424;11.764;2022-08-19T03:30:30;65.80;;;45.10;;
2173;SDS011;1093;51.424;11.764;2022-08-19T03:32:57;62.87;;;44.07;;
2173;SDS011;1093;51.424;11.764;2022-08-19T03:35:24;61.80;;;44.60;;
2173;SDS011;1093;51.424;11.764;2022-08-19T03:37:52;69.47;;;46.67;;
2173;SDS011;1093;51.424;11.764;2022-08-19T03:40:19;66.07;;;43.23;;
2173;SDS011;1093;51.424;11.764;2022-08-19T03:42:45;64.50;;;44.70;;
2173;SDS011;1093;51.424;11.764;2022-08-19T03:45:12;66.80;;;45.33;;
2173;SDS011;1093;51.424;11.764;2022-08-19T03:47:39;63.77;;;45.10;;
2173;SDS011;1093;51.424;11.764;2022-08-19T03:50:06;65.83;;;45.87;;
2173;SDS011;1093;51.424;11.764;2022-08-19T03:52:34;62.30;;;44.63;;
2173;SDS011;1093;51.424;11.764;2022-08-19T03:55:02;66.33;;;45.57;;
2173;SDS011;1093;51.424;11.764;2022-08-19T03:57:29;64.17;;;44.67;;
2173;SDS011;1093;51.424;11.764;2022-08-19T03:59:57;65.27;;;44.53;;
2173;SDS011;1093;51.424;11.764;2022-08-19T04:02:24;61.70;;;45.83;;
2173;SDS011;1093;51.424;11.764;2022-08-19T04:04:52;73.87;;;47.20;;
2173;SDS011;1093;51.424;11.764;2022-08-19T04:07:19;68.03;;;45.20;;
2173;SDS011;1093;51.424;11.764;2022-08-19T04:09:46;70.83;;;48.27;;
2173;SDS011;1093;51.424;11.764;2022-08-19T04:12:15;61.83;;;42.90;;
2173;SDS011;1093;51.424;11.764;2022-08-19T04:14:42;59.10;;;43.67;;
2173;SDS011;1093;51.424;11.764;2022-08-19T04:17:09;66.07;;;44.67;;
2173;SDS011;1093;51.424;11.764;2022-08-19T04:19:37;72.53;;;45.20;;
2173;SDS011;1093;51.424;11.764;2022-08-19T04:22:05;63.90;;;46.07;;
2173;SDS011;1093;51.424;11.764;2022-08-19T04:24:32;65.40;;;45.60;;
2173;SDS011;1093;51.424;11.764;2022-08-19T04:27:00;59.77;;;42.80;;
2173;SDS011;1093;51.424;11.764;2022-08-19T04:29:28;61.17;;;43.47;;
2173;SDS011;1093;51.424;11.764;2022-08-19T04:31:56;64.17;;;46.17;;
2173;SDS011;1093;51.424;11.764;2022-08-19T04:34:25;62.57;;;44.07;;
2173;SDS011;1093;51.424;11.764;2022-08-19T04:36:55;57.10;;;43.20;;
2173;SDS011;1093;51.424;11.764;2022-08-19T04:39:24;69.13;;;43.53;;
2173;SDS011;1093;51.424;11.764;2022-08-19T04:42:13;67.30;;;45.17;;
2173;SDS011;1093;51.424;11.764;2022-08-19T04:44:59;63.30;;;44.07;;
2173;SDS011;1093;51.424;11.764;2022-08-19T04:47:27;59.20;;;43.13;;
2173;SDS011;1093;51.424;11.764;2022-08-19T04:49:56;58.00;;;38.33;;
2173;SDS011;1093;51.424;11.764;2022-08-19T04:52:23;58.10;;;39.30;;
2173;SDS011;1093;51.424;11.764;2022-08-19T04:54:50;55.10;;;40.13;;
2173;SDS011;1093;51.424;11.764;2022-08-19T04:57:16;61.13;;;41.30;;
2173;SDS011;1093;51.424;11.764;2022-08-19T04:59:43;56.40;;;39.70;;
2173;SDS011;1093;51.424;11.764;2022-08-19T05:02:11;55.00;;;37.47;;
2173;SDS011;1093;51.424;11.764;2022-08-19T05:04:38;51.10;;;37.73;;
2173;SDS011;1093;51.424;11.764;2022-08-19T05:07:05;51.47;;;36.30;;
2173;SDS011;1093;51.424;11.764;2022-08-19T05:09:31;57.80;;;38.63;;
2173;SDS011;1093;51.424;11.764;2022-08-19T05:11:58;49.13;;;33.67;;
2173;SDS011;1093;51.424;11.764;2022-08-19T05:14:25;46.93;;;34.47;;
2173;SDS011;1093;51.424;11.764;2022-08-19T05:16:52;46.57;;;33.23;;
2173;SDS011;1093;51.424;11.764;2022-08-19T05:19:20;46.20;;;33.50;;
2173;SDS011;1093;51.424;11.764;2022-08-19T05:22:04;41.20;;;31.70;;
2173;SDS011;1093;51.424;11.764;2022-08-19T05:24:48;38.23;;;30.80;;
2173;SDS011;1093;51.424;11.764;2022-08-19T05:27:15;47.77;;;31.27;;
2173;SDS011;1093;51.424;11.764;2022-08-19T05:29:42;47.80;;;33.13;;
2173;SDS011;1093;51.424;11.764;2022-08-19T05:32:09;49.63;;;33.40;;
2173;SDS011;1093;51.424;11.764;2022-08-19T05:34:37;39.20;;;29.47;;
2173;SDS011;1093;51.424;11.764;2022-08-19T05:37:04;42.13;;;29.90;;
2173;SDS011;1093;51.424;11.764;2022-08-19T05:39:33;39.90;;;30.00;;
2173;SDS011;1093;51.424;11.764;2022-08-19T05:42:02;39.37;;;29.33;;
2173;SDS011;1093;51.424;11.764;2022-08-19T05:44:32;38.13;;;29.47;;
2173;SDS011;1093;51.424;11.764;2022-08-19T05:47:02;40.60;;;29.30;;
2173;SDS011;1093;51.424;11.764;2022-08-19T05:49:31;38.07;;;25.73;;
2173;SDS011;1093;51.424;11.764;2022-08-19T05:52:00;39.10;;;26.30;;
2173;SDS011;1093;51.424;11.764;2022-08-19T05:54:28;36.07;;;26.57;;
2173;SDS011;1093;51.424;11.764;2022-08-19T05:56:56;39.10;;;28.17;;
2173;SDS011;1093;51.424;11.764;2022-08-19T05:59:23;36.20;;;28.20;;
2173;SDS011;1093;51.424;11.764;2022-08-19T06:01:50;36.30;;;26.83;;
2173;SDS011;1093;51.424;11.764;2022-08-19T06:04:19;42.43;;;27.53;;
2173;SDS011;1093;51.424;11.764;2022-08-19T06:06:47;34.07;;;27.03;;
2173;SDS011;1093;51.424;11.764;2022-08-19T06:09:16;33.00;;;26.13;;
2173;SDS011;1093;51.424;11.764;2022-08-19T06:11:45;37.20;;;25.10;;
2173;SDS011;1093;51.424;11.764;2022-08-19T06:20:14;37.60;;;25.80;;
2173;SDS011;1093;51.424;11.764;2022-08-19T06:22:44;32.43;;;26.67;;
2173;SDS011;1093;51.424;11.764;2022-08-19T06:25:13;34.13;;;26.10;;
2173;SDS011;1093;51.424;11.764;2022-08-19T06:27:42;37.03;;;25.97;;
2173;SDS011;1093;51.424;11.764;2022-08-19T06:30:09;38.20;;;26.53;;
2173;SDS011;1093;51.424;11.764;2022-08-19T06:32:37;36.00;;;27.40;;
2173;SDS011;1093;51.424;11.764;2022-08-19T06:35:04;32.60;;;27.57;;
2173;SDS011;1093;51.424;11.764;2022-08-19T06:37:33;33.30;;;26.20;;
2173;SDS011;1093;51.424;11.764;2022-08-19T06:40:00;33.70;;;27.83;;
2173;SDS011;1093;51.424;11.764;2022-08-19T06:42:27;36.33;;;28.47;;
2173;SDS011;1093;51.424;11.764;2022-08-19T06:44:54;35.67;;;30.00;;
2173;SDS011;1093;51.424;11.764;2022-08-19T06:47:21;47.73;;;30.90;;
2173;SDS011;1093;51.424;11.764;2022-08-19T06:49:47;39.50;;;30.10;;
2173;SDS011;1093;51.424;11.764;2022-08-19T06:52:14;39.17;;;30.07;;
2173;SDS011;1093;51.424;11.764;2022-08-19T06:54:43;41.33;;;29.00;;
2173;SDS011;1093;51.424;11.764;2022-08-19T06:57:10;36.90;;;28.10;;
2173;SDS011;1093;51.424;11.764;2022-08-19T06:59:39;39.60;;;26.90;;
2173;SDS011;1093;51.424;11.764;2022-08-19T07:02:06;37.47;;;27.07;;
2173;SDS011;1093;51.424;11.764;2022-08-19T07:04:34;38.30;;;28.67;;
2173;SDS011;1093;51.424;11.764;2022-08-19T07:07:04;36.87;;;25.97;;
2173;SDS011;1093;51.424;11.764;2022-08-19T07:09:34;37.93;;;26.27;;
2173;SDS011;1093;51.424;11.764;2022-08-19T07:12:04;32.07;;;25.00;;
2173;SDS011;1093;51.424;11.764;2022-08-19T07:14:33;32.20;;;23.57;;
2173;SDS011;1093;51.424;11.764;2022-08-19T07:17:02;37.73;;;24.37;;
2173;SDS011;1093;51.424;11.764;2022-08-19T07:19:30;31.80;;;22.63;;
2173;SDS011;1093;51.424;11.764;2022-08-19T07:21:57;37.23;;;23.73;;
2173;SDS011;1093;51.424;11.764;2022-08-19T07:24:26;33.90;;;23.80;;
2173;SDS011;1093;51.424;11.764;2022-08-19T07:26:54;31.07;;;23.73;;
2173;SDS011;1093;51.424;11.764;2022-08-19T07:29:28;35.23;;;24.67;;
2173;SDS011;1093;51.424;11.764;2022-08-19T07:31:58;29.87;;;24.23;;
2173;SDS011;1093;51.424;11.764;2022-08-19T07:34:28;31.20;;;23.50;;
2173;SDS011;1093;51.424;11.764;2022-08-19T07:36:56;34.30;;;24.00;;
2173;SDS011;1093;51.424;11.764;2022-08-19T07:39:24;30.17;;;24.77;;
2173;SDS011;1093;51.424;11.764;2022-08-19T07:41:53;37.30;;;24.67;;
2173;SDS011;1093;51.424;11.764;2022-08-19T07:44:21;37.03;;;28.00;;
2173;SDS011;1093;51.424;11.764;2022-08-19T07:46:51;34.60;;;26.30;;
2173;SDS011;1093;51.424;11.764;2022-08-19T07:49:19;32.80;;;24.73;;
2173;SDS011;1093;51.424;11.764;2022-08-19T07:51:47;34.00;;;24.07;;
2173;SDS011;1093;51.424;11.764;2022-08-19T07:54:16;36.30;;;24.97;;
2173;SDS011;1093;51.424;11.764;2022-08-19T07:56:44;33.17;;;23.63;;
2173;SDS011;1093;51.424;11.764;2022-08-19T07:59:11;32.47;;;24.20;;
2173;SDS011;1093;51.424;11.764;2022-08-19T08:01:38;38.10;;;23.07;;
2173;SDS011;1093;51.424;11.764;2022-08-19T08:04:07;36.10;;;22.90;;
2173;SDS011;1093;51.424;11.764;2022-08-19T08:06:51;27.33;;;19.23;;
2173;SDS011;1093;51.424;11.764;2022-08-19T08:09:36;26.30;;;18.27;;
2173;SDS011;1093;51.424;11.764;2022-08-19T08:12:05;29.70;;;20.27;;
2173;SDS011;1093;51.424;11.764;2022-08-19T08:14:36;22.40;;;19.07;;
2173;SDS011;1093;51.424;11.764;2022-08-19T08:17:04;26.60;;;19.70;;
2173;SDS011;1093;51.424;11.764;2022-08-19T08:19:33;19.70;;;17.27;;
2173;SDS011;1093;51.424;11.764;2022-08-19T08:22:01;20.10;;;17.70;;
2173;SDS011;1093;51.424;11.764;2022-08-19T08:24:30;21.50;;;16.20;;
2173;SDS011;1093;51.424;11.764;2022-08-19T08:26:58;24.33;;;17.50;;
2173;SDS011;1093;51.424;11.764;2022-08-19T08:29:26;23.37;;;16.40;;
2173;SDS011;1093;51.424;11.764;2022-08-19T08:31:54;21.43;;;17.73;;
2173;SDS011;1093;51.424;11.764;2022-08-19T08:34:21;28.73;;;20.83;;
2173;SDS011;1093;51.424;11.764;2022-08-19T08:36:49;22.63;;;19.60;;
2173;SDS011;1093;51.424;11.764;2022-08-19T08:39:17;28.20;;;20.60;;
2173;SDS011;1093;51.424;11.764;2022-08-19T08:41:47;28.53;;;21.37;;
2173;SDS011;1093;51.424;11.764;2022-08-19T08:44:20;30.57;;;20.40;;
2173;SDS011;1093;51.424;11.764;2022-08-19T08:46:50;30.10;;;20.40;;
2173;SDS011;1093;51.424;11.764;2022-08-19T08:49:29;28.27;;;20.80;;
2173;SDS011;1093;51.424;11.764;2022-08-19T08:52:05;31.37;;;20.53;;
2173;SDS011;1093;51.424;11.764;2022-08-19T08:54:37;26.70;;;20.10;;
2173;SDS011;1093;51.424;11.764;2022-08-19T08:57:07;26.20;;;20.90;;
2173;SDS011;1093;51.424;11.764;2022-08-19T08:59:39;29.70;;;20.70;;
2173;SDS011;1093;51.424;11.764;2022-08-19T09:02:07;25.77;;;20.07;;
2173;SDS011;1093;51.424;11.764;2022-08-19T09:04:34;27.20;;;19.17;;
2173;SDS011;1093;51.424;11.764;2022-08-19T09:07:07;24.53;;;19.40;;
2173;SDS011;1093;51.424;11.764;2022-08-19T09:09:48;25.50;;;20.77;;
2173;SDS011;1093;51.424;11.764;2022-08-19T09:12:19;25.80;;;18.80;;
2173;SDS011;1093;51.424;11.764;2022-08-19T09:14:53;24.00;;;19.60;;
2173;SDS011;1093;51.424;11.764;2022-08-19T09:17:24;29.73;;;20.33;;
2173;SDS011;1093;51.424;11.764;2022-08-19T09:19:56;29.83;;;20.20;;
2173;SDS011;1093;51.424;11.764;2022-08-19T09:22:30;27.63;;;20.30;;
2173;SDS011;1093;51.424;11.764;2022-08-19T09:24:58;25.70;;;19.20;;
2173;SDS011;1093;51.424;11.764;2022-08-19T09:27:25;24.20;;;19.00;;
2173;SDS011;1093;51.424;11.764;2022-08-19T09:29:53;23.57;;;18.00;;
2173;SDS011;1093;51.424;11.764;2022-08-19T09:32:20;27.23;;;18.60;;
2173;SDS011;1093;51.424;11.764;2022-08-19T09:34:48;23.00;;;18.20;;
2173;SDS011;1093;51.424;11.764;2022-08-19T09:37:18;20.53;;;17.20;;
2173;SDS011;1093;51.424;11.764;2022-08-19T09:39:46;24.60;;;18.83;;
2173;SDS011;1093;51.424;11.764;2022-08-19T09:42:13;26.43;;;18.00;;
2173;SDS011;1093;51.424;11.764;2022-08-19T09:44:40;23.10;;;18.20;;
2173;SDS011;1093;51.424;11.764;2022-08-19T09:47:08;20.60;;;18.00;;
2173;SDS011;1093;51.424;11.764;2022-08-19T09:49:36;20.30;;;16.20;;
2173;SDS011;1093;51.424;11.764;2022-08-19T09:52:04;22.53;;;16.80;;
2173;SDS011;1093;51.424;11.764;2022-08-19T09:54:32;21.17;;;16.67;;
2173;SDS011;1093;51.424;11.764;2022-08-19T09:57:01;25.50;;;17.30;;
2173;SDS011;1093;51.424;11.764;2022-08-19T09:59:28;23.83;;;19.40;;
2173;SDS011;1093;51.424;11.764;2022-08-19T10:01:55;29.57;;;21.40;;
2173;SDS011;1093;51.424;11.764;2022-08-19T10:04:22;26.30;;;20.57;;
2173;SDS011;1093;51.424;11.764;2022-08-19T10:07:09;30.93;;;21.77;;
2173;SDS011;1093;51.424;11.764;2022-08-19T10:09:36;27.17;;;22.53;;
2173;SDS011;1093;51.424;11.764;2022-08-19T10:12:05;30.37;;;23.33;;
2173;SDS011;1093;51.424;11.764;2022-08-19T10:14:32;27.00;;;22.20;;
2173;SDS011;1093;51.424;11.764;2022-08-19T10:17:00;28.13;;;20.93;;
2173;SDS011;1093;51.424;11.764;2022-08-19T10:19:27;29.40;;;21.40;;
2173;SDS011;1093;51.424;11.764;2022-08-19T10:22:01;33.10;;;21.30;;
2173;SDS011;1093;51.424;11.764;2022-08-19T10:24:29;33.87;;;22.37;;
2173;SDS011;1093;51.424;11.764;2022-08-19T10:26:56;28.10;;;21.43;;
2173;SDS011;1093;51.424;11.764;2022-08-19T10:29:25;31.97;;;21.80;;
2173;SDS011;1093;51.424;11.764;2022-08-19T10:31:53;30.43;;;22.00;;
2173;SDS011;1093;51.424;11.764;2022-08-19T10:34:21;31.27;;;21.37;;
2173;SDS011;1093;51.424;11.764;2022-08-19T10:36:47;26.43;;;20.70;;
2173;SDS011;1093;51.424;11.764;2022-08-19T10:39:14;26.53;;;19.63;;
2173;SDS011;1093;51.424;11.764;2022-08-19T10:41:41;24.67;;;19.20;;
2173;SDS011;1093;51.424;11.764;2022-08-19T10:44:09;27.50;;;19.27;;
2173;SDS011;1093;51.424;11.764;2022-08-19T10:46:39;25.97;;;18.57;;
2173;SDS011;1093;51.424;11.764;2022-08-19T10:49:09;25.03;;;16.53;;
2173;SDS011;1093;51.424;11.764;2022-08-19T10:51:37;25.97;;;20.47;;
2173;SDS011;1093;51.424;11.764;2022-08-19T10:54:22;25.53;;;18.73;;
2173;SDS011;1093;51.424;11.764;2022-08-19T10:57:09;22.03;;;17.73;;
2173;SDS011;1093;51.424;11.764;2022-08-19T10:59:34;20.30;;;16.40;;
2173;SDS011;1093;51.424;11.764;2022-08-19T11:02:04;21.47;;;16.50;;
2173;SDS011;1093;51.424;11.764;2022-08-19T11:04:34;21.93;;;16.57;;
2173;SDS011;1093;51.424;11.764;2022-08-19T11:07:02;19.87;;;15.80;;
2173;SDS011;1093;51.424;11.764;2022-08-19T11:09:30;20.00;;;15.20;;
2173;SDS011;1093;51.424;11.764;2022-08-19T11:11:57;15.43;;;13.50;;
2173;SDS011;1093;51.424;11.764;2022-08-19T11:14:24;15.77;;;13.00;;
2173;SDS011;1093;51.424;11.764;2022-08-19T11:16:51;15.50;;;13.80;;
2173;SDS011;1093;51.424;11.764;2022-08-19T11:19:22;16.20;;;13.70;;
2173;SDS011;1093;51.424;11.764;2022-08-19T11:21:49;15.93;;;13.33;;
2173;SDS011;1093;51.424;11.764;2022-08-19T11:24:19;15.73;;;12.80;;
2173;SDS011;1093;51.424;11.764;2022-08-19T11:26:48;18.00;;;14.40;;
2173;SDS011;1093;51.424;11.764;2022-08-19T11:29:18;21.53;;;14.67;;
2173;SDS011;1093;51.424;11.764;2022-08-19T11:31:51;15.47;;;12.70;;
2173;SDS011;1093;51.424;11.764;2022-08-19T11:34:19;16.83;;;14.60;;
2173;SDS011;1093;51.424;11.764;2022-08-19T11:36:49;17.40;;;13.50;;
2173;SDS011;1093;51.424;11.764;2022-08-19T11:39:18;17.73;;;13.90;;
2173;SDS011;1093;51.424;11.764;2022-08-19T11:41:46;18.50;;;13.33;;
2173;SDS011;1093;51.424;11.764;2022-08-19T11:44:13;15.47;;;13.57;;
2173;SDS011;1093;51.424;11.764;2022-08-19T11:46:41;18.83;;;13.37;;
2173;SDS011;1093;51.424;11.764;2022-08-19T11:49:10;17.53;;;12.77;;
2173;SDS011;1093;51.424;11.764;2022-08-19T11:51:38;19.20;;;13.90;;
2173;SDS011;1093;51.424;11.764;2022-08-19T11:54:07;16.33;;;12.50;;
2173;SDS011;1093;51.424;11.764;2022-08-19T11:56:34;19.30;;;14.00;;
2173;SDS011;1093;51.424;11.764;2022-08-19T11:59:02;19.93;;;12.50;;
2173;SDS011;1093;51.424;11.764;2022-08-19T12:01:29;13.67;;;11.77;;
2173;SDS011;1093;51.424;11.764;2022-08-19T12:07:19;16.87;;;11.67;;
2173;SDS011;1093;51.424;11.764;2022-08-19T12:09:46;14.07;;;12.67;;
2173;SDS011;1093;51.424;11.764;2022-08-19T12:12:13;15.23;;;12.50;;
2173;SDS011;1093;51.424;11.764;2022-08-19T12:14:40;13.90;;;11.57;;
2173;SDS011;1093;51.424;11.764;2022-08-19T12:17:07;16.10;;;11.83;;
2173;SDS011;1093;51.424;11.764;2022-08-19T12:19:35;16.10;;;13.10;;
2173;SDS011;1093;51.424;11.764;2022-08-19T12:22:02;14.60;;;12.20;;
2173;SDS011;1093;51.424;11.764;2022-08-19T12:24:32;16.80;;;14.20;;
2173;SDS011;1093;51.424;11.764;2022-08-19T12:26:59;18.47;;;14.33;;
2173;SDS011;1093;51.424;11.764;2022-08-19T12:29:28;18.40;;;13.93;;
2173;SDS011;1093;51.424;11.764;2022-08-19T12:31:55;15.77;;;14.17;;
2173;SDS011;1093;51.424;11.764;2022-08-19T12:34:26;17.00;;;13.17;;
2173;SDS011;1093;51.424;11.764;2022-08-19T12:36:55;14.60;;;13.07;;
2173;SDS011;1093;51.424;11.764;2022-08-19T12:39:21;17.17;;;13.40;;
2173;SDS011;1093;51.424;11.764;2022-08-19T12:41:50;21.37;;;15.13;;
2173;SDS011;1093;51.424;11.764;2022-08-19T12:44:17;16.43;;;14.70;;
2173;SDS011;1093;51.424;11.764;2022-08-19T12:46:44;15.63;;;13.60;;
2173;SDS011;1093;51.424;11.764;2022-08-19T12:49:10;19.50;;;12.90;;
2173;SDS011;1093;51.424;11.764;2022-08-19T12:51:37;21.50;;;14.67;;
2173;SDS011;1093;51.424;11.764;2022-08-19T12:54:04;18.03;;;14.73;;
2173;SDS011;1093;51.424;11.764;2022-08-19T12:56:31;13.17;;;11.80;;
2173;SDS011;1093;51.424;11.764;2022-08-19T12:59:01;17.97;;;14.57;;
2173;SDS011;1093;51.424;11.764;2022-08-19T13:01:29;15.20;;;13.60;;
2173;SDS011;1093;51.424;11.764;2022-08-19T13:03:57;16.77;;;14.77;;
2173;SDS011;1093;51.424;11.764;2022-08-19T13:06:24;20.00;;;14.93;;
2173;SDS011;1093;51.424;11.764;2022-08-19T13:08:51;15.83;;;14.17;;
2173;SDS011;1093;51.424;11.764;2022-08-19T13:11:19;19.50;;;16.23;;
2173;SDS011;1093;51.424;11.764;2022-08-19T13:13:49;21.47;;;16.40;;
2173;SDS011;1093;51.424;11.764;2022-08-19T13:16:21;15.47;;;13.90;;
2173;SDS011;1093;51.424;11.764;2022-08-19T13:18:48;16.10;;;13.10;;
2173;SDS011;1093;51.424;11.764;2022-08-19T13:21:16;16.80;;;15.00;;
2173;SDS011;1093;51.424;11.764;2022-08-19T13:23:44;13.60;;;12.03;;
2173;SDS011;1093;51.424;11.764;2022-08-19T13:26:12;17.50;;;14.23;;
2173;SDS011;1093;51.424;11.764;2022-08-19T13:28:40;17.00;;;13.30;;
2173;SDS011;1093;51.424;11.764;2022-08-19T13:31:26;14.70;;;12.90;;
2173;SDS011;1093;51.424;11.764;2022-08-19T13:34:13;16.33;;;14.20;;
2173;SDS011;1093;51.424;11.764;2022-08-19T13:36:41;15.20;;;13.17;;
2173;SDS011;1093;51.424;11.764;2022-08-19T13:39:08;15.30;;;13.73;;
2173;SDS011;1093;51.424;11.764;2022-08-19T13:41:36;18.13;;;14.43;;
2173;SDS011;1093;51.424;11.764;2022-08-19T13:44:03;15.13;;;13.30;;
2173;SDS011;1093;51.424;11.764;2022-08-19T13:46:32;17.20;;;15.37;;
2173;SDS011;1093;51.424;11.764;2022-08-19T13:48:59;15.40;;;13.80;;
2173;SDS011;1093;51.424;11.764;2022-08-19T13:51:26;13.90;;;12.40;;
2173;SDS011;1093;51.424;11.764;2022-08-19T13:53:53;15.43;;;13.87;;
2173;SDS011;1093;51.424;11.764;2022-08-19T13:56:20;16.13;;;14.47;;
2173;SDS011;1093;51.424;11.764;2022-08-19T13:58:47;17.00;;;14.20;;
2173;SDS011;1093;51.424;11.764;2022-08-19T14:01:18;16.23;;;14.53;;
2173;SDS011;1093;51.424;11.764;2022-08-19T14:03:48;17.60;;;14.20;;
2173;SDS011;1093;51.424;11.764;2022-08-19T14:06:15;15.80;;;12.97;;
2173;SDS011;1093;51.424;11.764;2022-08-19T14:08:43;18.53;;;14.90;;
2173;SDS011;1093;51.424;11.764;2022-08-19T14:11:10;14.27;;;12.77;;
2173;SDS011;1093;51.424;11.764;2022-08-19T14:13:37;16.50;;;12.97;;
2173;SDS011;1093;51.424;11.764;2022-08-19T14:16:06;16.97;;;13.83;;
2173;SDS011;1093;51.424;11.764;2022-08-19T14:18:34;16.03;;;14.00;;
2173;SDS011;1093;51.424;11.764;2022-08-19T14:21:03;15.67;;;13.90;;
2173;SDS011;1093;51.424;11.764;2022-08-19T14:23:29;15.30;;;13.70;;
2173;SDS011;1093;51.424;11.764;2022-08-19T14:26:02;16.23;;;14.17;;
2173;SDS011;1093;51.424;11.764;2022-08-19T14:28:30;15.03;;;12.40;;
2173;SDS011;1093;51.424;11.764;2022-08-19T14:30:57;15.20;;;13.60;;
2173;SDS011;1093;51.424;11.764;2022-08-19T14:33:23;18.33;;;15.67;;
2173;SDS011;1093;51.424;11.764;2022-08-19T14:35:50;18.83;;;14.57;;
2173;SDS011;1093;51.424;11.764;2022-08-19T14:38:18;15.00;;;13.47;;
2173;SDS011;1093;51.424;11.764;2022-08-19T14:40:46;16.17;;;14.10;;
2173;SDS011;1093;51.424;11.764;2022-08-19T14:43:14;15.00;;;13.40;;
2173;SDS011;1093;51.424;11.764;2022-08-19T14:45:42;15.63;;;14.03;;
2173;SDS011;1093;51.424;11.764;2022-08-19T14:48:09;15.57;;;13.30;;
2173;SDS011;1093;51.424;11.764;2022-08-19T14:50:38;17.47;;;12.93;;